createdAt,value
2023-04-02T00:02:52.135Z,23.33
2023-04-02T00:05:26.337Z,22.85
2023-04-02T00:07:58.176Z,20.67
2023-04-02T00:10:40.613Z,22.63
2023-04-02T00:13:10.660Z,26.45
2023-04-02T00:15:45.617Z,26.92
2023-04-02T00:18:19.006Z,24.20
2023-04-02T00:21:22.952Z,23.38
2023-04-02T00:23:50.808Z,18.30
2023-04-02T00:26:38.067Z,21.05
2023-04-02T00:29:06.786Z,18.05
2023-04-02T00:31:35.293Z,17.75
2023-04-02T00:34:07.578Z,21.27
2023-04-02T00:36:35.618Z,23.83
2023-04-02T00:41:36.308Z,29.15
2023-04-02T00:44:03.915Z,20.30
2023-04-02T00:46:47.384Z,19.48
2023-04-02T00:49:38.812Z,22.30
2023-04-02T01:53:02.731Z,16.63
2023-04-02T01:55:38.560Z,15.98
2023-04-02T01:58:06.009Z,19.27
2023-04-02T02:00:35.489Z,19.52
2023-04-02T02:03:03.336Z,16.77
2023-04-02T02:05:30.630Z,26.80
2023-04-02T02:07:58.652Z,19.42
2023-04-02T02:10:36.326Z,16.80
2023-04-02T02:13:03.930Z,14.32
2023-04-02T02:23:01.135Z,18.63
2023-04-02T02:25:33.274Z,18.38
2023-04-02T02:28:17.810Z,17.50
2023-04-02T03:18:38.041Z,13.73
2023-04-02T03:21:22.338Z,17.45
2023-04-02T03:23:56.799Z,14.50
2023-04-02T03:26:34.945Z,16.13
2023-04-02T03:29:12.837Z,14.93
2023-04-02T03:37:24.181Z,14.20
2023-04-02T05:03:03.660Z,11.13
2023-04-02T05:05:34.234Z,20.88
2023-04-02T05:08:14.143Z,10.32
2023-04-02T05:10:48.585Z,13.75
2023-04-02T05:13:54.778Z,17.25
2023-04-02T05:16:33.881Z,17.13
2023-04-02T05:19:28.938Z,12.13
2023-04-02T05:22:04.650Z,15.15
2023-04-02T05:25:15.708Z,12.02
2023-04-02T05:28:15.551Z,13.98
2023-04-02T05:30:54.750Z,13.60
2023-04-02T05:33:30.537Z,10.15
2023-04-02T05:36:04.545Z,11.93
2023-04-02T05:38:36.948Z,14.70
2023-04-02T05:41:32.723Z,12.57
2023-04-02T05:44:24.756Z,11.43
2023-04-02T05:49:43.256Z,10.65
2023-04-02T05:52:18.023Z,9.32
2023-04-02T05:54:51.238Z,10.05
2023-04-02T05:57:43.838Z,12.43
2023-04-02T06:00:38.972Z,15.15
2023-04-02T06:06:03.780Z,11.50
2023-04-02T06:08:39.883Z,10.00
2023-04-02T06:11:22.890Z,19.75
2023-04-02T06:13:50.339Z,11.23
2023-04-02T06:16:25.979Z,12.63
2023-04-02T06:18:53.163Z,11.10
2023-04-02T06:21:22.486Z,25.10
2023-04-02T06:24:00.671Z,15.88
2023-04-02T06:26:35.601Z,14.15
2023-04-02T06:29:18.108Z,12.07
2023-04-02T06:31:59.047Z,12.80
2023-04-02T06:34:28.365Z,20.43
2023-04-02T06:37:18.545Z,10.13
2023-04-02T06:39:45.796Z,9.65
2023-04-02T06:42:22.631Z,12.88
2023-04-02T06:44:50.319Z,11.45
2023-04-02T06:47:44.535Z,13.70
2023-04-02T06:50:23.493Z,13.98
2023-04-02T06:53:05.360Z,10.45
2023-04-02T06:55:52.082Z,12.00
2023-04-02T06:58:20.815Z,9.50
2023-04-02T07:00:49.703Z,16.40
2023-04-02T07:03:27.734Z,10.60
2023-04-02T07:05:55.168Z,12.95
2023-04-02T07:08:22.867Z,16.77
2023-04-02T07:10:50.198Z,13.57
2023-04-02T07:13:22.091Z,11.68
2023-04-02T07:15:52.669Z,11.20
2023-04-02T07:18:34.206Z,9.47
2023-04-02T07:21:01.557Z,14.55
2023-04-02T07:23:28.643Z,16.63
2023-04-02T07:25:57.254Z,13.50
2023-04-02T07:28:25.102Z,12.55
2023-04-02T07:30:53.657Z,11.15
2023-04-02T07:33:27.530Z,11.63
2023-04-02T07:35:56.241Z,12.55
2023-04-02T07:38:24.090Z,13.95
2023-04-02T07:40:54.585Z,12.23
2023-04-02T07:43:23.284Z,12.68
2023-04-02T07:45:51.946Z,21.48
2023-04-02T07:48:19.096Z,9.00
2023-04-02T07:50:46.249Z,14.63
2023-04-02T07:53:38.870Z,8.70
2023-04-02T07:56:07.429Z,21.33
2023-04-02T07:58:34.542Z,12.07
2023-04-02T08:01:03.865Z,13.75
2023-04-02T08:03:31.528Z,12.23
2023-04-02T08:05:59.027Z,14.60
2023-04-02T08:08:26.706Z,13.85
2023-04-02T08:10:55.612Z,15.32
2023-04-02T08:13:22.790Z,16.73
2023-04-02T08:15:49.983Z,12.90
2023-04-02T08:18:17.194Z,14.90
2023-04-02T08:20:44.325Z,11.63
2023-04-02T08:23:17.242Z,11.00
2023-04-02T08:25:45.830Z,15.80
2023-04-02T09:04:06.296Z,9.57
2023-04-02T09:06:34.833Z,7.20
2023-04-02T09:09:02.068Z,7.18
2023-04-02T09:12:03.086Z,5.95
2023-04-02T09:17:32.826Z,16.55
2023-04-02T09:20:26.555Z,7.97
2023-04-02T09:22:54.721Z,8.27
2023-04-02T09:25:28.331Z,15.77
2023-04-02T09:27:57.603Z,9.75
2023-04-02T09:30:46.188Z,13.57
2023-04-02T09:33:13.490Z,8.13
2023-04-02T09:35:49.852Z,11.30
2023-04-02T09:38:33.165Z,13.10
2023-04-02T09:41:07.697Z,12.73
2023-04-02T09:46:39.163Z,13.13
2023-04-02T09:49:06.362Z,15.38
2023-04-02T09:51:35.369Z,10.02
2023-04-02T09:54:12.832Z,13.98
2023-04-02T09:56:41.248Z,6.40
2023-04-02T09:59:14.127Z,7.78
2023-04-02T10:01:43.780Z,10.93
2023-04-02T10:04:48.276Z,7.32
2023-04-02T10:07:38.184Z,11.52
2023-04-02T10:10:44.985Z,9.23
2023-04-02T10:13:21.078Z,6.72
2023-04-02T10:16:10.924Z,6.22
2023-04-02T10:18:58.734Z,10.40
2023-04-02T10:21:37.804Z,19.23
2023-04-02T10:24:16.824Z,8.65
2023-04-02T10:27:04.957Z,7.53
2023-04-02T10:30:05.313Z,11.55
2023-04-02T10:33:08.166Z,9.02
2023-04-02T10:35:59.856Z,6.60
2023-04-02T10:38:48.804Z,13.15
2023-04-02T10:42:04.610Z,10.68
2023-04-02T10:45:02.856Z,7.40
2023-04-02T10:47:48.758Z,8.80
2023-04-02T10:50:34.243Z,9.93
2023-04-02T10:56:05.856Z,9.40
2023-04-02T10:58:38.314Z,9.98
2023-04-02T11:01:16.758Z,8.20
2023-04-02T11:03:57.891Z,9.88
2023-04-02T11:06:39.543Z,10.43
2023-04-02T11:09:11.311Z,8.80
2023-04-02T11:14:24.496Z,15.48
2023-04-02T11:16:53.749Z,7.25
2023-04-02T11:19:23.868Z,10.63
2023-04-02T11:22:05.204Z,4.45
2023-04-02T11:24:44.170Z,13.38
2023-04-02T11:27:41.402Z,7.22
2023-04-02T11:30:24.532Z,8.68
2023-04-02T11:32:52.071Z,6.30
2023-04-02T11:35:31.465Z,6.18
2023-04-02T11:38:23.539Z,12.60
2023-04-02T11:40:55.248Z,8.77
2023-04-02T11:46:30.855Z,9.60
2023-04-02T11:49:36.640Z,11.95
2023-04-02T11:52:11.863Z,9.25
2023-04-02T11:54:40.056Z,9.48
2023-04-02T11:57:56.386Z,8.70
2023-04-02T12:00:49.609Z,8.43
2023-04-02T12:03:54.051Z,12.45
2023-04-02T12:07:10.893Z,8.45
2023-04-02T12:09:52.014Z,7.40
2023-04-02T12:12:34.031Z,5.78
2023-04-02T12:17:40.083Z,8.80
2023-04-02T12:42:48.453Z,7.10
2023-04-02T12:45:33.438Z,11.43
2023-04-02T12:48:04.625Z,9.00
2023-04-02T12:50:32.857Z,8.50
2023-04-02T12:53:01.176Z,10.13
2023-04-02T12:55:28.408Z,7.93
2023-04-02T12:57:57.856Z,8.63
2023-04-02T13:00:25.210Z,5.32
2023-04-02T13:03:24.028Z,6.88
2023-04-02T13:05:57.172Z,10.35
2023-04-02T13:08:31.496Z,7.35
2023-04-02T13:11:01.405Z,12.85
2023-04-02T13:13:36.727Z,9.00
2023-04-02T13:16:10.083Z,7.25
2023-04-02T13:18:38.622Z,7.45
2023-04-02T13:21:19.651Z,11.68
2023-04-02T13:23:47.189Z,7.95
2023-04-02T13:26:27.331Z,5.65
2023-04-02T13:29:02.862Z,9.38
2023-04-02T13:31:32.772Z,6.05
2023-04-02T13:33:59.964Z,8.38
2023-04-02T13:36:29.537Z,6.80
2023-04-02T13:38:57.284Z,8.93
2023-04-02T13:41:30.757Z,10.95
2023-04-02T13:44:04.474Z,9.38
2023-04-02T13:46:34.058Z,8.45
2023-04-02T13:49:01.687Z,9.73
2023-04-02T13:51:39.640Z,7.70
2023-04-02T13:54:20.147Z,5.82
2023-04-02T13:56:47.638Z,5.93
2023-04-02T13:59:14.950Z,7.15
2023-04-02T14:01:43.930Z,9.23
2023-04-02T14:04:13.824Z,7.22
2023-04-02T14:07:20.660Z,6.93
2023-04-02T14:10:17.603Z,5.65
2023-04-02T14:13:20.928Z,5.45
2023-04-02T14:15:56.810Z,5.97
2023-04-02T14:18:51.821Z,6.72
2023-04-02T14:21:42.403Z,7.05
2023-04-02T14:24:21.851Z,7.15
2023-04-02T14:27:29.644Z,13.63
2023-04-02T14:30:15.614Z,7.28
2023-04-02T14:33:13.732Z,8.48
2023-04-02T14:35:47.978Z,7.60
2023-04-02T14:38:47.947Z,7.18
2023-04-02T14:41:34.228Z,5.65
2023-04-02T14:44:04.718Z,6.32
2023-04-02T14:46:36.862Z,6.80
2023-04-02T14:49:26.014Z,8.35
2023-04-02T14:52:14.336Z,7.63
2023-04-02T14:55:05.465Z,8.35
2023-04-02T14:57:37.226Z,18.52
2023-04-02T15:00:46.002Z,10.88
2023-04-02T15:03:25.342Z,7.18
2023-04-02T15:06:00.803Z,8.90
2023-04-02T15:08:41.077Z,6.35
2023-04-02T15:11:17.912Z,6.43
2023-04-02T15:14:04.049Z,5.78
2023-04-02T15:16:33.434Z,7.65
2023-04-02T15:19:03.033Z,5.97
2023-04-02T15:21:55.884Z,5.20
2023-04-02T15:24:48.486Z,11.98
2023-04-02T15:27:25.200Z,8.40
2023-04-02T15:30:26.982Z,6.78
2023-04-02T15:32:59.078Z,8.80
2023-04-02T15:35:45.206Z,13.93
2023-04-02T15:38:56.047Z,7.50
2023-04-02T15:41:42.808Z,5.72
2023-04-02T15:44:15.816Z,8.73
2023-04-02T15:47:01.808Z,6.65
2023-04-02T15:49:40.536Z,5.85
2023-04-02T15:52:16.574Z,4.72
2023-04-02T15:55:09.914Z,9.20
2023-04-02T15:58:25.059Z,7.07
2023-04-02T16:01:03.988Z,6.95
2023-04-02T16:03:41.837Z,6.72
2023-04-02T16:06:21.895Z,7.47
2023-04-02T16:09:23.469Z,5.85
2023-04-02T16:12:12.630Z,7.43
2023-04-02T16:14:41.082Z,6.03
2023-04-02T16:17:24.826Z,10.10
2023-04-02T16:20:22.589Z,6.32
2023-04-02T16:23:01.554Z,11.38
2023-04-02T16:25:36.478Z,5.60
2023-04-02T16:28:22.115Z,5.85
2023-04-02T16:31:09.395Z,5.63
2023-04-02T16:34:19.708Z,11.05
2023-04-02T16:37:11.950Z,7.28
2023-04-02T16:40:03.200Z,10.98
2023-04-02T16:42:48.005Z,4.10
2023-04-02T16:45:31.361Z,6.28
2023-04-02T16:48:57.842Z,8.50
2023-04-02T16:52:19.650Z,7.25
2023-04-02T16:55:34.283Z,9.45
2023-04-02T16:58:23.450Z,9.05
2023-04-02T17:01:01.190Z,9.18
2023-04-02T17:04:04.312Z,6.88
2023-04-02T17:07:15.302Z,5.63
2023-04-02T17:10:19.665Z,6.88
2023-04-02T17:12:51.541Z,8.10
2023-04-02T17:15:28.624Z,4.88
2023-04-02T17:18:01.299Z,6.88
2023-04-02T17:20:29.286Z,10.25
2023-04-02T17:22:57.016Z,6.47
2023-04-02T17:25:29.026Z,9.10
2023-04-02T17:27:57.066Z,7.03
2023-04-02T17:30:42.503Z,6.53
2023-04-02T17:33:15.567Z,6.35
2023-04-02T17:36:11.132Z,4.90
2023-04-02T17:39:03.842Z,5.95
2023-04-02T17:42:07.645Z,5.20
2023-04-02T17:44:54.810Z,8.98
2023-04-02T17:47:47.971Z,9.35
2023-04-02T17:50:39.360Z,4.43
2023-04-02T17:53:34.431Z,10.68
2023-04-02T17:56:53.061Z,4.10
2023-04-02T18:00:01.012Z,4.35
2023-04-02T18:02:59.938Z,2.95
2023-04-02T18:05:51.870Z,3.85
2023-04-02T18:08:46.873Z,6.60
2023-04-02T18:11:35.493Z,6.20
2023-04-02T18:14:46.558Z,5.18
2023-04-02T18:17:48.845Z,7.32
2023-04-02T18:20:37.284Z,6.60
2023-04-02T18:23:38.564Z,4.65
2023-04-02T18:26:22.487Z,3.63
2023-04-02T18:29:23.858Z,5.63
2023-04-02T18:32:16.658Z,4.30
2023-04-02T18:35:29.799Z,4.95
2023-04-02T18:38:21.223Z,4.40
2023-04-02T18:41:20.052Z,4.10
2023-04-02T18:44:16.067Z,5.05
2023-04-02T18:47:09.203Z,4.93
2023-04-02T18:49:40.252Z,5.97
2023-04-02T18:52:16.977Z,6.45
2023-04-02T18:54:57.259Z,6.35
2023-04-02T18:57:34.043Z,7.18
2023-04-02T19:00:05.021Z,6.32
2023-04-02T19:02:52.683Z,6.73
2023-04-02T19:05:40.659Z,7.50
2023-04-02T19:08:24.890Z,5.28
2023-04-02T19:10:58.242Z,7.10
2023-04-02T19:13:25.426Z,8.52
2023-04-02T19:16:23.628Z,5.22
2023-04-02T19:19:17.234Z,4.35
2023-04-02T19:25:01.733Z,4.85
2023-04-02T19:27:48.095Z,7.70
2023-04-02T19:31:18.403Z,5.00
2023-04-02T19:34:22.294Z,4.05
2023-04-02T19:37:17.013Z,6.40
2023-04-02T19:40:11.850Z,5.07
2023-04-02T19:42:50.807Z,4.32
2023-04-02T19:45:32.885Z,4.55
2023-04-02T19:48:06.439Z,7.20
2023-04-02T19:50:33.649Z,5.55
2023-04-02T19:53:00.764Z,7.45
2023-04-02T19:55:27.898Z,4.72
2023-04-02T19:58:04.516Z,5.38
2023-04-02T20:00:42.123Z,6.85
2023-04-02T20:03:09.216Z,5.18
2023-04-02T20:05:36.432Z,4.72
2023-04-02T20:08:03.874Z,3.75
2023-04-02T20:10:31.045Z,6.45
2023-04-02T20:12:58.164Z,3.80
2023-04-02T20:15:25.420Z,8.18
2023-04-02T20:17:52.646Z,4.25
2023-04-02T20:20:19.890Z,13.52
2023-04-02T20:22:48.560Z,11.57
2023-04-02T20:25:16.562Z,4.63
2023-04-02T20:27:43.662Z,6.25
2023-04-02T20:30:11.625Z,7.00
2023-04-02T20:32:38.958Z,5.25
2023-04-02T20:35:06.679Z,4.32
2023-04-02T20:37:34.885Z,4.70
2023-04-02T20:40:02.167Z,9.07
2023-04-02T20:42:29.521Z,7.95
2023-04-02T20:44:56.687Z,6.82
2023-04-02T20:47:23.797Z,7.40
2023-04-02T20:49:51.548Z,4.88
2023-04-02T20:52:18.640Z,8.13
2023-04-02T20:54:45.754Z,4.07
2023-04-02T20:57:13.972Z,8.13
2023-04-02T20:59:41.148Z,8.18
2023-04-02T21:04:37.384Z,6.18
2023-04-02T21:07:04.572Z,4.60
2023-04-02T21:09:32.246Z,6.32
2023-04-02T21:11:59.399Z,7.45
2023-04-02T21:14:26.824Z,6.55
2023-04-02T21:16:53.906Z,7.30
2023-04-02T21:19:21.496Z,8.20
2023-04-02T21:21:48.695Z,4.28
2023-04-02T21:44:08.469Z,5.90
2023-04-02T21:46:38.776Z,6.38
2023-04-02T21:49:08.195Z,4.85
2023-04-02T21:51:37.560Z,5.00
2023-04-02T22:23:49.007Z,7.22
2023-04-02T22:46:26.901Z,5.32
2023-04-02T22:48:54.702Z,7.25
2023-04-02T22:51:23.748Z,5.50
2023-04-02T22:53:53.275Z,5.40
2023-04-02T22:56:27.731Z,7.10
2023-04-02T22:58:54.886Z,5.25
2023-04-02T23:01:29.826Z,7.67
2023-04-02T23:28:51.586Z,6.30
2023-04-02T23:31:22.346Z,11.30
2023-04-02T23:33:51.554Z,5.23
2023-04-02T23:36:28.775Z,9.02
2023-04-02T23:39:11.039Z,7.22
2023-04-02T23:41:40.651Z,13.52
2023-04-02T23:44:08.252Z,7.30
2023-04-02T23:46:36.601Z,6.65
2023-04-02T23:49:04.690Z,5.85
2023-04-02T23:51:32.510Z,5.10
2023-04-02T23:53:59.791Z,4.88
2023-04-02T23:56:27.310Z,8.43
2023-04-02T23:58:54.556Z,10.45
